Terminal Aerodrome Forecast
Issued by NWS Jackson, KY

Home | Current Version | Previous Version | Text Only | Print | Product List | Glossary On
Versions: 1 2 3 4 5 6 7 8 9 10 11 12 13 14 15 16 17 18
000
FTUS43 KJKL 190717 AAB
TAFLOZ
TAF AMD
KLOZ 190717Z 1907/2006 21003KT 1SM BR SCT002 OVC015
     FM190900 22002KT 3SM BR OVC010
     FM191300 23003KT P6SM BKN015
     FM191800 26004KT P6SM SCT030=

USA.gov is the U.S. government's official web portal to all federal, state and local government web resources and services.